createdAt,value
2023-05-20T00:00:15.568Z,10.02
2023-05-20T00:03:21.299Z,9.92
2023-05-20T00:06:27.770Z,9.88
2023-05-20T00:09:32.898Z,9.87
2023-05-20T00:12:39.094Z,9.82
2023-05-20T00:15:44.103Z,9.77
2023-05-20T00:18:49.132Z,9.85
2023-05-20T00:21:57.632Z,9.78
2023-05-20T00:25:02.683Z,9.78
2023-05-20T00:28:08.272Z,9.86
2023-05-20T00:31:13.836Z,9.91
2023-05-20T00:34:18.881Z,9.88
2023-05-20T00:37:25.328Z,9.80
2023-05-20T00:40:30.520Z,9.69
2023-05-20T00:43:35.434Z,9.70
2023-05-20T00:46:40.777Z,9.64
2023-05-20T00:49:49.568Z,9.68
2023-05-20T00:52:58.852Z,9.65
2023-05-20T00:56:04.084Z,9.66
2023-05-20T00:59:09.253Z,9.80
2023-05-20T01:02:14.612Z,9.73
2023-05-20T01:05:19.755Z,9.64
2023-05-20T01:08:27.030Z,9.65
2023-05-20T01:11:36.776Z,9.62
2023-05-20T01:14:48.436Z,9.58
2023-05-20T01:18:01.440Z,9.52
2023-05-20T01:21:08.136Z,9.46
2023-05-20T01:24:14.894Z,9.39
2023-05-20T01:27:22.689Z,9.39
2023-05-20T01:30:31.120Z,9.33
2023-05-20T01:33:38.297Z,9.32
2023-05-20T01:36:43.666Z,9.32
2023-05-20T01:39:52.467Z,9.38
2023-05-20T01:42:58.217Z,9.31
2023-05-20T01:46:03.462Z,9.25
2023-05-20T01:49:08.541Z,9.29
2023-05-20T01:52:14.083Z,9.26
2023-05-20T01:55:20.985Z,9.33
2023-05-20T01:58:26.071Z,9.34
2023-05-20T02:01:31.296Z,9.32
2023-05-20T02:04:36.327Z,9.25
2023-05-20T02:07:41.313Z,9.25
2023-05-20T02:10:50.081Z,9.23
2023-05-20T02:13:55.163Z,9.18
2023-05-20T02:17:00.797Z,9.17
2023-05-20T02:20:08.718Z,9.19
2023-05-20T02:23:13.731Z,9.32
2023-05-20T02:26:20.995Z,9.26
2023-05-20T02:29:26.177Z,9.32
2023-05-20T02:32:31.146Z,9.32
2023-05-20T02:35:38.113Z,9.32
2023-05-20T02:38:43.166Z,9.23
2023-05-20T02:41:50.545Z,9.31
2023-05-20T02:44:58.497Z,9.35
2023-05-20T02:48:03.753Z,9.34
2023-05-20T02:51:10.085Z,9.34
2023-05-20T02:54:15.135Z,9.50
2023-05-20T02:57:21.844Z,9.47
2023-05-20T03:00:28.794Z,9.52
2023-05-20T03:03:33.872Z,9.55
2023-05-20T03:06:39.065Z,9.55
2023-05-20T03:09:44.028Z,9.65
2023-05-20T03:12:51.157Z,9.67
2023-05-20T03:15:56.358Z,9.67
2023-05-20T03:19:02.338Z,9.70
2023-05-20T03:22:07.481Z,9.61
2023-05-20T03:25:13.985Z,9.67
2023-05-20T03:28:20.778Z,9.74
2023-05-20T03:31:26.133Z,9.76
2023-05-20T03:34:31.374Z,9.87
2023-05-20T03:37:37.025Z,9.91
2023-05-20T03:40:42.420Z,10.01
2023-05-20T03:43:48.831Z,9.90
2023-05-20T03:46:53.989Z,10.07
2023-05-20T03:49:59.121Z,10.03
2023-05-20T03:53:04.280Z,10.07
2023-05-20T03:56:16.148Z,10.07
2023-05-20T03:59:23.444Z,10.04
2023-05-20T04:02:28.603Z,10.08
2023-05-20T04:05:33.886Z,10.10
2023-05-20T04:08:41.182Z,10.08
2023-05-20T04:11:46.326Z,10.20
2023-05-20T04:14:52.805Z,10.32
2023-05-20T04:17:58.435Z,10.34
2023-05-20T04:21:03.726Z,10.41
2023-05-20T04:24:09.210Z,10.44
2023-05-20T04:27:14.782Z,10.54
2023-05-20T04:30:22.099Z,10.66
2023-05-20T04:33:28.024Z,10.71
2023-05-20T04:36:34.732Z,10.75
2023-05-20T04:39:43.713Z,10.88
2023-05-20T04:42:52.696Z,10.95
2023-05-20T04:46:00.025Z,11.00
2023-05-20T04:49:05.584Z,11.08
2023-05-20T04:52:13.531Z,11.13
2023-05-20T04:55:19.886Z,11.25
2023-05-20T04:58:25.465Z,11.31
2023-05-20T05:01:32.479Z,11.42
2023-05-20T05:04:37.569Z,11.47
2023-05-20T05:07:42.707Z,11.50
2023-05-20T05:10:49.278Z,11.58
2023-05-20T05:13:54.517Z,11.67
2023-05-20T05:17:04.793Z,11.73
2023-05-20T05:20:11.197Z,11.87
2023-05-20T05:23:16.745Z,11.98
2023-05-20T05:26:22.425Z,12.06
2023-05-20T05:29:27.692Z,12.13
2023-05-20T05:32:34.804Z,12.24
2023-05-20T05:35:39.919Z,12.42
2023-05-20T05:38:45.531Z,12.74
2023-05-20T05:41:50.576Z,12.90
2023-05-20T05:44:57.291Z,13.11
2023-05-20T05:48:05.596Z,13.37
2023-05-20T05:51:12.605Z,13.36
2023-05-20T05:54:17.611Z,13.63
2023-05-20T05:57:23.090Z,13.83
2023-05-20T06:00:28.803Z,13.84
2023-05-20T06:03:35.507Z,13.98
2023-05-20T06:06:40.511Z,14.11
2023-05-20T06:09:45.879Z,14.19
2023-05-20T06:12:50.873Z,14.33
2023-05-20T06:15:56.452Z,14.36
2023-05-20T06:19:05.614Z,14.53
2023-05-20T06:22:12.105Z,14.72
2023-05-20T06:25:18.214Z,14.77
2023-05-20T06:28:24.007Z,14.79
2023-05-20T06:31:30.558Z,14.99
2023-05-20T06:34:37.709Z,14.91
2023-05-20T06:37:42.963Z,15.07
2023-05-20T06:40:48.176Z,15.09
2023-05-20T06:43:53.774Z,15.04
2023-05-20T06:47:18.210Z,15.05
2023-05-20T06:50:28.424Z,15.23
2023-05-20T06:53:33.527Z,15.47
2023-05-20T06:56:38.623Z,15.51
2023-05-20T06:59:43.789Z,15.52
2023-05-20T07:02:49.418Z,15.50
2023-05-20T07:05:56.572Z,15.62
2023-05-20T07:09:02.500Z,15.70
2023-05-20T07:12:08.766Z,15.65
2023-05-20T07:15:14.973Z,15.82
2023-05-20T07:18:21.665Z,15.84
2023-05-20T07:21:32.487Z,15.96
2023-05-20T07:25:03.976Z,15.79
2023-05-20T07:28:09.026Z,15.90
2023-05-20T07:31:14.626Z,16.13
2023-05-20T07:34:23.118Z,16.12
2023-05-20T07:37:31.243Z,16.27
2023-05-20T07:40:36.930Z,16.45
2023-05-20T07:43:42.296Z,16.55
2023-05-20T07:46:47.500Z,16.31
2023-05-20T07:49:52.881Z,16.51
2023-05-20T07:52:59.344Z,16.66
2023-05-20T07:56:07.552Z,16.67
2023-05-20T07:59:13.165Z,16.71
2023-05-20T08:02:24.017Z,16.70
2023-05-20T08:05:30.286Z,16.72
2023-05-20T08:08:40.535Z,16.78
2023-05-20T08:11:50.854Z,16.75
2023-05-20T08:14:56.384Z,16.91
2023-05-20T08:18:01.664Z,16.91
2023-05-20T08:21:08.086Z,16.89
2023-05-20T08:24:15.355Z,16.92
2023-05-20T08:27:20.473Z,16.91
2023-05-20T08:30:25.522Z,16.98
2023-05-20T08:33:31.392Z,17.02
2023-05-20T08:36:36.688Z,17.10
2023-05-20T08:39:46.293Z,17.16
2023-05-20T08:42:53.837Z,17.14
2023-05-20T08:45:59.892Z,17.07
2023-05-20T08:49:07.915Z,17.06
2023-05-20T08:52:13.886Z,17.21
2023-05-20T08:55:25.229Z,17.22
2023-05-20T08:58:30.363Z,17.25
2023-05-20T09:01:37.104Z,17.27
2023-05-20T09:04:42.467Z,17.29
2023-05-20T09:07:47.815Z,17.39
2023-05-20T09:10:55.954Z,17.39
2023-05-20T09:14:00.940Z,17.38
2023-05-20T09:17:08.491Z,17.50
2023-05-20T09:20:14.629Z,17.49
2023-05-20T09:23:21.783Z,17.35
2023-05-20T09:26:31.071Z,17.37
2023-05-20T09:29:36.715Z,17.31
2023-05-20T09:32:42.068Z,17.22
2023-05-20T09:35:47.537Z,17.30
2023-05-20T09:38:54.689Z,17.27
2023-05-20T09:42:07.235Z,17.38
2023-05-20T09:45:13.544Z,17.30
2023-05-20T09:48:19.172Z,17.32
2023-05-20T09:51:24.503Z,17.28
2023-05-20T09:54:30.686Z,17.33
2023-05-20T09:57:38.314Z,17.30
2023-05-20T10:00:43.663Z,17.41
2023-05-20T10:03:48.678Z,17.47
2023-05-20T10:07:13.089Z,17.55
2023-05-20T10:10:28.932Z,17.45
2023-05-20T10:13:52.029Z,17.59
2023-05-20T10:17:07.968Z,17.48
2023-05-20T10:20:14.960Z,17.64
2023-05-20T10:23:24.229Z,17.48
2023-05-20T10:26:37.746Z,17.58
2023-05-20T10:29:51.584Z,17.62
2023-05-20T10:33:00.750Z,17.71
2023-05-20T10:36:06.876Z,17.80
2023-05-20T10:39:17.613Z,17.93
2023-05-20T10:42:30.738Z,17.97
2023-05-20T10:45:37.670Z,18.21
2023-05-20T10:48:44.371Z,18.11
2023-05-20T10:51:49.542Z,18.15
2023-05-20T10:54:58.267Z,18.03
2023-05-20T10:58:03.725Z,18.12
2023-05-20T11:01:11.424Z,18.45
2023-05-20T11:04:17.894Z,18.41
2023-05-20T11:07:29.627Z,18.43
2023-05-20T11:10:36.286Z,18.63
2023-05-20T11:13:41.648Z,18.68
2023-05-20T11:16:48.761Z,18.49
2023-05-20T11:19:53.862Z,18.52
2023-05-20T11:22:59.018Z,18.56
2023-05-20T11:26:04.184Z,18.68
2023-05-20T11:29:09.326Z,18.78
2023-05-20T11:32:16.095Z,18.91
2023-05-20T11:35:25.257Z,18.66
2023-05-20T11:38:30.341Z,18.80
2023-05-20T11:41:35.799Z,18.73
2023-05-20T11:44:46.785Z,18.87
2023-05-20T11:48:03.987Z,18.86
2023-05-20T11:51:10.915Z,18.94
2023-05-20T11:54:15.963Z,19.11
2023-05-20T11:57:21.345Z,19.01
2023-05-20T12:00:29.252Z,19.10
2023-05-20T12:03:38.090Z,19.21
2023-05-20T12:06:44.189Z,19.27
2023-05-20T12:09:49.226Z,19.18
2023-05-20T12:12:54.259Z,19.05
2023-05-20T12:15:59.875Z,19.21
2023-05-20T12:19:06.605Z,19.22
2023-05-20T12:22:13.319Z,19.19
2023-05-20T12:25:19.417Z,18.82
2023-05-20T12:28:24.631Z,18.57
2023-05-20T12:31:31.718Z,18.56
2023-05-20T12:34:39.702Z,18.73
2023-05-20T12:37:45.451Z,18.79
2023-05-20T12:40:50.722Z,18.96
2023-05-20T12:43:55.710Z,18.68
2023-05-20T12:47:01.096Z,18.65
2023-05-20T12:50:08.935Z,18.75
2023-05-20T12:53:14.484Z,18.84
2023-05-20T12:56:20.078Z,18.76
2023-05-20T12:59:25.074Z,18.73
2023-05-20T13:02:30.278Z,18.63
2023-05-20T13:05:36.724Z,18.86
2023-05-20T13:08:41.726Z,18.95
2023-05-20T13:11:46.730Z,18.66
2023-05-20T13:14:52.566Z,18.85
2023-05-20T13:17:57.902Z,19.27
2023-05-20T13:21:04.542Z,19.19
2023-05-20T13:24:10.175Z,19.31
2023-05-20T13:27:15.366Z,19.26
2023-05-20T13:30:20.411Z,19.19
2023-05-20T13:33:25.524Z,19.23
2023-05-20T13:36:33.390Z,19.16
2023-05-20T13:39:38.536Z,18.95
2023-05-20T13:42:44.248Z,18.86
2023-05-20T13:45:49.225Z,18.60
2023-05-20T13:48:54.663Z,18.90
2023-05-20T13:52:01.275Z,19.33
2023-05-20T13:55:07.278Z,19.23
2023-05-20T13:58:12.733Z,19.52
2023-05-20T14:01:18.429Z,19.90
2023-05-20T14:04:24.689Z,19.77
2023-05-20T14:07:31.144Z,19.85
2023-05-20T14:10:36.533Z,19.75
2023-05-20T14:13:41.838Z,19.65
2023-05-20T14:16:46.860Z,19.81
2023-05-20T14:19:52.015Z,19.85
2023-05-20T14:23:00.700Z,19.95
2023-05-20T14:26:05.904Z,19.97
2023-05-20T14:29:11.297Z,20.07
2023-05-20T14:32:16.424Z,20.02
2023-05-20T14:35:21.777Z,20.09
2023-05-20T14:38:28.270Z,20.18
2023-05-20T14:41:33.625Z,20.60
2023-05-20T14:44:38.346Z,21.44
2023-05-20T14:47:43.552Z,22.04
2023-05-20T14:50:49.875Z,21.82
2023-05-20T14:53:56.579Z,20.77
2023-05-20T14:57:02.177Z,20.25
2023-05-20T15:00:08.875Z,20.02
2023-05-20T15:03:14.944Z,19.84
2023-05-20T15:06:20.144Z,19.90
2023-05-20T15:09:26.557Z,19.56
2023-05-20T15:12:31.542Z,19.78
2023-05-20T15:15:36.605Z,20.18
2023-05-20T15:18:41.798Z,19.84
2023-05-20T15:21:47.124Z,19.67
2023-05-20T15:24:53.591Z,19.60
2023-05-20T15:27:58.599Z,19.78
2023-05-20T15:31:03.702Z,19.73
2023-05-20T15:34:08.792Z,19.88
2023-05-20T15:37:14.005Z,19.66
2023-05-20T15:40:20.822Z,19.48
2023-05-20T15:43:25.896Z,19.31
2023-05-20T15:46:31.073Z,19.39
2023-05-20T15:49:36.151Z,19.15
2023-05-20T15:52:42.379Z,19.00
2023-05-20T15:55:48.937Z,18.85
2023-05-20T15:58:53.955Z,18.79
2023-05-20T16:01:59.176Z,18.70
2023-05-20T16:05:04.400Z,18.71
2023-05-20T16:08:09.518Z,18.69
2023-05-20T16:11:15.860Z,18.75
2023-05-20T16:14:20.930Z,18.89
2023-05-20T16:17:25.971Z,18.79
2023-05-20T16:20:31.142Z,18.89
2023-05-20T16:23:36.564Z,18.83
2023-05-20T16:26:43.067Z,18.90
2023-05-20T16:29:48.181Z,18.87
2023-05-20T16:32:53.294Z,18.74
2023-05-20T16:35:58.262Z,18.57
2023-05-20T16:39:03.790Z,18.51
2023-05-20T16:42:10.181Z,18.70
2023-05-20T16:45:15.327Z,18.67
2023-05-20T16:48:20.300Z,18.69
2023-05-20T16:51:26.175Z,18.37
2023-05-20T16:54:31.326Z,18.33
2023-05-20T16:57:38.356Z,18.36
2023-05-20T17:00:44.218Z,18.09
2023-05-20T17:03:49.800Z,18.11
2023-05-20T17:06:54.941Z,18.06
2023-05-20T17:10:00.266Z,18.13
2023-05-20T17:13:06.720Z,18.10
2023-05-20T17:16:13.535Z,17.83
2023-05-20T17:19:18.677Z,17.75
2023-05-20T17:22:23.920Z,17.58
2023-05-20T17:25:29.086Z,17.49
2023-05-20T17:28:35.600Z,17.49
2023-05-20T17:31:40.763Z,17.52
2023-05-20T17:34:45.970Z,17.36
2023-05-20T17:37:51.109Z,17.44
2023-05-20T17:40:56.558Z,17.20
2023-05-20T17:44:05.957Z,17.31
2023-05-20T17:47:11.120Z,17.21
2023-05-20T17:50:16.704Z,17.05
2023-05-20T17:53:22.210Z,16.92
2023-05-20T17:56:27.804Z,16.89
2023-05-20T17:59:36.811Z,16.79
2023-05-20T18:02:47.375Z,16.84
2023-05-20T18:05:54.374Z,16.72
2023-05-20T18:09:01.441Z,16.60
2023-05-20T18:12:07.785Z,16.45
2023-05-20T18:15:17.020Z,16.37
2023-05-20T18:18:22.516Z,16.11
2023-05-20T18:21:27.591Z,16.14
2023-05-20T18:24:32.996Z,16.13
2023-05-20T18:27:37.975Z,16.02
2023-05-20T18:30:44.458Z,15.77
2023-05-20T18:33:49.530Z,15.72
2023-05-20T18:36:54.921Z,15.59
2023-05-20T18:39:59.917Z,15.58
2023-05-20T18:43:04.938Z,15.58
2023-05-20T18:46:11.730Z,15.50
2023-05-20T18:49:16.883Z,15.41
2023-05-20T18:52:21.877Z,15.41
2023-05-20T18:55:27.115Z,15.16
2023-05-20T18:58:32.510Z,15.14
2023-05-20T19:01:40.285Z,15.04
2023-05-20T19:04:45.320Z,15.01
2023-05-20T19:07:50.402Z,15.00
2023-05-20T19:10:56.764Z,14.73
2023-05-20T19:14:04.184Z,14.69
2023-05-20T19:17:10.617Z,14.66
2023-05-20T19:20:15.667Z,14.41
2023-05-20T19:23:21.110Z,14.36
2023-05-20T19:26:26.852Z,14.28
2023-05-20T19:29:33.153Z,14.26
2023-05-20T19:32:39.775Z,14.16
2023-05-20T19:35:44.886Z,14.09
2023-05-20T19:38:50.185Z,14.06
2023-05-20T19:41:55.173Z,13.93
2023-05-20T19:45:00.241Z,14.01
2023-05-20T19:48:08.058Z,13.91
2023-05-20T19:51:15.075Z,13.86
2023-05-20T19:54:20.088Z,13.78
2023-05-20T19:57:25.128Z,13.77
2023-05-20T20:00:30.339Z,13.71
2023-05-20T20:03:37.582Z,13.61
2023-05-20T20:06:42.623Z,13.53
2023-05-20T20:09:51.728Z,13.46
2023-05-20T20:12:56.759Z,13.44
2023-05-20T20:16:02.243Z,13.41
2023-05-20T20:19:08.724Z,13.33
2023-05-20T20:22:13.875Z,13.29
2023-05-20T20:25:19.006Z,13.23
2023-05-20T20:28:24.278Z,13.26
2023-05-20T20:31:29.382Z,13.06
2023-05-20T20:34:35.935Z,13.06
2023-05-20T20:37:41.252Z,13.02
2023-05-20T20:40:47.197Z,13.04
2023-05-20T20:43:52.559Z,13.02
2023-05-20T20:46:58.407Z,12.92
2023-05-20T20:50:04.928Z,12.87
2023-05-20T20:53:10.098Z,12.82
2023-05-20T20:56:15.324Z,12.70
2023-05-20T20:59:26.241Z,12.73
2023-05-20T21:02:31.779Z,12.64
2023-05-20T21:05:39.099Z,12.60
2023-05-20T21:08:44.141Z,12.56
2023-05-20T21:11:50.888Z,12.54
2023-05-20T21:14:56.228Z,12.51
2023-05-20T21:18:01.363Z,12.53
2023-05-20T21:21:12.339Z,12.35
2023-05-20T21:24:18.681Z,12.34
2023-05-20T21:27:23.694Z,12.35
2023-05-20T21:30:28.821Z,12.40
2023-05-20T21:33:33.946Z,12.38
2023-05-20T21:36:40.665Z,12.35
2023-05-20T21:39:45.694Z,12.32
2023-05-20T21:42:50.809Z,12.27
2023-05-20T21:45:55.953Z,12.14
2023-05-20T21:49:01.165Z,12.03
2023-05-20T21:52:08.373Z,12.12
2023-05-20T21:55:13.754Z,12.09
2023-05-20T21:58:18.760Z,12.07
2023-05-20T22:01:23.890Z,12.06
2023-05-20T22:04:29.276Z,11.99
2023-05-20T22:07:35.904Z,11.94
2023-05-20T22:10:41.650Z,11.90
2023-05-20T22:13:46.684Z,11.82
2023-05-20T22:16:51.809Z,11.88
2023-05-20T22:19:56.983Z,11.83
2023-05-20T22:23:04.707Z,11.96
2023-05-20T22:26:09.994Z,11.97
2023-05-20T22:29:15.062Z,11.92
2023-05-20T22:32:20.225Z,11.93
2023-05-20T22:35:25.441Z,11.88
2023-05-20T22:38:32.005Z,11.77
2023-05-20T22:41:36.975Z,11.77
2023-05-20T22:44:42.112Z,11.67
2023-05-20T22:47:47.514Z,11.78
2023-05-20T22:50:54.164Z,11.67
2023-05-20T22:54:00.617Z,11.65
2023-05-20T22:57:06.183Z,11.56
2023-05-20T23:00:16.367Z,11.52
2023-05-20T23:03:21.567Z,11.47
2023-05-20T23:06:26.957Z,11.51
2023-05-20T23:09:33.620Z,11.40
2023-05-20T23:12:39.115Z,11.51
2023-05-20T23:15:48.186Z,11.51
2023-05-20T23:18:53.297Z,11.50
2023-05-20T23:21:58.468Z,11.33
2023-05-20T23:25:05.776Z,11.36
2023-05-20T23:28:13.076Z,11.39
2023-05-20T23:31:18.774Z,11.42
2023-05-20T23:34:23.939Z,11.33
2023-05-20T23:37:29.219Z,11.33
2023-05-20T23:40:35.703Z,11.27
2023-05-20T23:43:40.653Z,11.31
2023-05-20T23:46:45.988Z,11.18
2023-05-20T23:49:51.023Z,11.21
2023-05-20T23:52:56.166Z,11.22
2023-05-20T23:56:03.081Z,11.16
2023-05-20T23:59:08.189Z,11.19
